createdAt,value
2017-11-30T00:00:43.763Z,95.68
2017-11-30T00:03:09.997Z,95.33
2017-11-30T00:05:36.129Z,94.87
2017-11-30T00:08:02.254Z,94.77
2017-11-30T00:10:28.431Z,94.73
2017-11-30T00:12:54.538Z,94.56
2017-11-30T00:15:20.590Z,94.37
2017-11-30T00:17:46.630Z,94.25
2017-11-30T00:20:12.860Z,93.59
2017-11-30T00:22:39.048Z,93.45
2017-11-30T00:25:05.238Z,93.51
2017-11-30T00:27:31.479Z,93.28
2017-11-30T00:29:57.587Z,93.27
2017-11-30T00:32:23.716Z,92.99
2017-11-30T00:34:49.905Z,92.67
2017-11-30T00:37:16.447Z,92.54
2017-11-30T00:39:42.665Z,92.57
2017-11-30T00:42:08.765Z,92.51
2017-11-30T00:44:43.851Z,92.53
2017-11-30T00:47:10.166Z,92.41
2017-11-30T00:49:36.373Z,92.64
2017-11-30T00:52:02.470Z,92.53
2017-11-30T00:54:28.713Z,92.63
2017-11-30T00:56:54.749Z,92.74
2017-11-30T00:59:20.765Z,92.76
2017-11-30T01:01:46.806Z,92.70
2017-11-30T01:04:12.854Z,92.86
2017-11-30T01:06:39.244Z,93.10
2017-11-30T01:09:05.450Z,92.96
2017-11-30T01:11:31.528Z,92.78
2017-11-30T01:13:57.534Z,92.86
2017-11-30T01:16:23.694Z,92.74
2017-11-30T01:18:49.864Z,92.84
2017-11-30T01:21:26.929Z,92.83
2017-11-30T01:23:53.095Z,92.69
2017-11-30T01:26:19.218Z,92.28
2017-11-30T01:28:45.263Z,92.10
2017-11-30T01:31:11.527Z,92.28
2017-11-30T01:33:37.722Z,92.42
2017-11-30T01:36:03.863Z,92.51
2017-11-30T01:38:30.052Z,92.55
2017-11-30T01:40:56.310Z,92.80
2017-11-30T01:43:22.382Z,92.77
2017-11-30T01:45:48.680Z,92.91
2017-11-30T01:48:14.695Z,93.05
2017-11-30T01:50:40.811Z,93.17
2017-11-30T01:53:07.022Z,93.34
2017-11-30T01:55:33.182Z,93.27
2017-11-30T01:57:59.259Z,93.35
2017-11-30T02:00:28.176Z,93.14
2017-11-30T02:02:54.724Z,93.26
2017-11-30T02:05:20.941Z,93.29
2017-11-30T02:07:47.071Z,93.45
2017-11-30T02:10:13.148Z,93.62
2017-11-30T02:12:39.390Z,93.78
2017-11-30T02:15:05.586Z,93.87
2017-11-30T02:17:31.623Z,94.13
2017-11-30T02:19:57.806Z,94.32
2017-11-30T02:22:24.040Z,94.32
2017-11-30T02:24:50.149Z,94.44
2017-11-30T02:27:16.335Z,94.39
2017-11-30T02:29:42.561Z,94.21
2017-11-30T02:32:08.655Z,94.26
2017-11-30T02:34:34.802Z,94.28
2017-11-30T02:37:01.985Z,93.93
2017-11-30T02:39:28.159Z,93.86
2017-11-30T02:41:54.390Z,93.93
2017-11-30T02:44:20.718Z,93.63
2017-11-30T02:46:47.113Z,93.62
2017-11-30T02:49:13.271Z,93.60
2017-11-30T02:51:39.376Z,93.46
2017-11-30T02:54:05.457Z,93.36
2017-11-30T02:56:31.530Z,93.25
2017-11-30T02:58:57.617Z,93.27
2017-11-30T03:01:23.916Z,93.41
2017-11-30T03:03:50.073Z,93.17
2017-11-30T03:06:16.174Z,93.04
2017-11-30T03:08:42.305Z,93.06
2017-11-30T03:11:08.594Z,93.44
2017-11-30T03:13:34.683Z,93.66
2017-11-30T03:16:00.916Z,93.78
2017-11-30T03:18:27.030Z,93.88
2017-11-30T03:20:53.203Z,94.07
2017-11-30T03:23:19.557Z,94.21
2017-11-30T03:25:45.786Z,94.09
2017-11-30T03:28:11.896Z,94.26
2017-11-30T03:30:37.987Z,94.54
2017-11-30T03:33:04.263Z,94.67
2017-11-30T03:35:30.461Z,94.73
2017-11-30T03:37:56.656Z,94.65
2017-11-30T03:40:22.850Z,94.77
2017-11-30T03:42:49.126Z,94.84
2017-11-30T03:45:15.346Z,94.79
2017-11-30T03:47:41.536Z,94.43
2017-11-30T03:50:07.630Z,94.19
2017-11-30T03:52:33.639Z,94.20
2017-11-30T03:54:59.914Z,94.14
2017-11-30T03:57:26.172Z,94.12
2017-11-30T03:59:52.227Z,94.04
2017-11-30T04:02:18.398Z,93.97
2017-11-30T04:04:44.752Z,94.04
2017-11-30T04:07:10.922Z,93.86
2017-11-30T04:09:37.154Z,93.63
2017-11-30T04:12:03.423Z,93.36
2017-11-30T04:14:29.497Z,92.93
2017-11-30T04:16:55.696Z,92.56
2017-11-30T04:19:21.925Z,92.65
2017-11-30T04:21:48.353Z,92.57
2017-11-30T04:24:14.467Z,92.47
2017-11-30T04:26:40.502Z,92.43
2017-11-30T04:29:06.664Z,92.26
2017-11-30T04:31:32.757Z,92.02
2017-11-30T04:33:58.916Z,92.04
2017-11-30T04:36:25.101Z,91.92
2017-11-30T04:38:51.209Z,91.66
2017-11-30T04:41:17.451Z,90.94
2017-11-30T04:43:43.646Z,90.70
2017-11-30T04:46:09.779Z,90.67
2017-11-30T04:48:35.899Z,90.04
2017-11-30T04:51:02.337Z,89.78
2017-11-30T04:53:28.324Z,89.48
2017-11-30T04:55:54.345Z,89.95
2017-11-30T04:58:20.902Z,89.42
2017-11-30T05:00:46.983Z,89.31
2017-11-30T05:03:13.106Z,89.61
2017-11-30T05:05:39.217Z,89.33
2017-11-30T05:08:05.480Z,89.50
2017-11-30T05:10:31.570Z,89.75
2017-11-30T05:12:57.763Z,89.36
2017-11-30T05:15:24.161Z,89.18
2017-11-30T05:17:50.543Z,89.01
2017-11-30T05:20:16.712Z,88.40
2017-11-30T05:22:42.871Z,88.27
2017-11-30T05:25:09.000Z,87.78
2017-11-30T05:27:35.431Z,87.76
2017-11-30T05:30:01.500Z,87.69
2017-11-30T05:32:27.816Z,87.78
2017-11-30T05:34:54.150Z,87.68
2017-11-30T05:37:20.444Z,88.14
2017-11-30T05:39:46.696Z,87.66
2017-11-30T05:42:12.928Z,87.62
2017-11-30T05:44:39.240Z,87.12
2017-11-30T05:47:05.270Z,87.05
2017-11-30T05:49:31.994Z,87.24
2017-11-30T05:51:58.718Z,86.88
2017-11-30T05:54:24.987Z,86.22
2017-11-30T05:56:51.375Z,85.77
2017-11-30T05:59:17.582Z,86.32
2017-11-30T06:01:43.877Z,85.84
2017-11-30T06:04:10.329Z,85.89
2017-11-30T06:06:36.787Z,85.68
2017-11-30T06:09:02.967Z,85.81
2017-11-30T06:11:29.284Z,85.38
2017-11-30T06:13:55.560Z,85.25
2017-11-30T06:16:21.921Z,85.75
2017-11-30T06:18:48.365Z,86.04
2017-11-30T06:21:14.791Z,85.45
2017-11-30T06:23:41.007Z,85.46
2017-11-30T06:26:07.353Z,85.26
2017-11-30T06:28:33.552Z,85.52
2017-11-30T06:30:59.941Z,84.72
2017-11-30T06:33:26.099Z,84.95
2017-11-30T06:35:53.211Z,84.86
2017-11-30T06:38:19.573Z,84.62
2017-11-30T06:40:45.900Z,83.93
2017-11-30T06:43:12.209Z,84.14
2017-11-30T06:45:38.556Z,84.01
2017-11-30T06:48:04.974Z,83.81
2017-11-30T06:50:31.294Z,84.52
2017-11-30T06:52:57.664Z,83.79
2017-11-30T06:55:24.386Z,83.87
2017-11-30T06:57:50.647Z,83.95
2017-11-30T07:00:16.988Z,83.83
2017-11-30T07:02:43.151Z,83.77
2017-11-30T07:05:09.436Z,83.90
2017-11-30T07:07:35.805Z,83.64
2017-11-30T07:10:02.263Z,83.69
2017-11-30T07:12:29.092Z,82.92
2017-11-30T07:14:55.543Z,82.83
2017-11-30T07:17:22.054Z,83.12
2017-11-30T07:19:48.704Z,83.09
2017-11-30T07:22:15.297Z,82.56
2017-11-30T07:24:41.378Z,82.96
2017-11-30T07:27:07.627Z,82.52
2017-11-30T07:29:33.883Z,82.73
2017-11-30T07:32:00.096Z,83.09
2017-11-30T07:34:26.257Z,82.69
2017-11-30T07:36:52.838Z,82.96
2017-11-30T07:39:19.081Z,82.78
2017-11-30T07:41:45.251Z,82.86
2017-11-30T07:44:11.364Z,82.95
2017-11-30T07:46:37.578Z,82.62
2017-11-30T07:49:03.626Z,82.50
2017-11-30T07:51:29.733Z,82.79
2017-11-30T07:53:55.871Z,82.17
2017-11-30T07:56:21.934Z,82.39
2017-11-30T07:58:48.103Z,82.17
2017-11-30T08:01:14.135Z,81.94
2017-11-30T08:03:40.488Z,81.77
2017-11-30T08:06:06.546Z,81.78
2017-11-30T08:08:32.706Z,81.82
2017-11-30T08:10:59.140Z,81.76
2017-11-30T08:13:25.263Z,81.43
2017-11-30T08:15:51.391Z,81.69
2017-11-30T08:18:18.112Z,81.56
2017-11-30T08:20:44.784Z,81.78
2017-11-30T08:23:11.143Z,82.03
2017-11-30T08:25:37.457Z,82.17
2017-11-30T08:28:03.979Z,82.69
2017-11-30T08:30:31.246Z,83.13
2017-11-30T08:32:58.390Z,83.67
2017-11-30T08:35:25.288Z,83.83
2017-11-30T08:37:51.992Z,83.38
2017-11-30T08:40:18.909Z,82.69
2017-11-30T08:42:45.038Z,81.72
2017-11-30T08:45:11.072Z,81.18
2017-11-30T08:47:37.586Z,81.38
2017-11-30T08:50:04.081Z,80.84
2017-11-30T08:52:31.001Z,80.70
2017-11-30T08:54:57.445Z,80.49
2017-11-30T08:57:23.989Z,79.85
2017-11-30T08:59:50.427Z,79.81
2017-11-30T09:02:16.897Z,79.34
2017-11-30T09:04:43.506Z,79.40
2017-11-30T09:07:10.044Z,78.90
2017-11-30T09:09:36.530Z,78.10
2017-11-30T09:12:03.162Z,77.62
2017-11-30T09:20:51.584Z,77.02
2017-11-30T09:23:18.236Z,76.57
2017-11-30T09:25:44.827Z,76.95
2017-11-30T09:28:11.523Z,77.58
2017-11-30T09:30:37.815Z,77.41
2017-11-30T09:35:57.536Z,76.07
2017-11-30T09:38:24.099Z,75.49
2017-11-30T09:40:51.577Z,75.24
2017-11-30T09:43:18.511Z,73.89
2017-11-30T09:45:45.099Z,74.65
2017-11-30T09:48:16.101Z,74.34
2017-11-30T09:50:43.021Z,73.58
2017-11-30T09:53:09.636Z,74.00
2017-11-30T09:55:36.425Z,74.67
2017-11-30T09:58:02.956Z,74.75
2017-11-30T10:00:29.588Z,74.35
2017-11-30T10:02:56.343Z,74.42
2017-11-30T10:05:22.593Z,73.86
2017-11-30T10:07:48.629Z,72.95
2017-11-30T10:10:14.832Z,73.50
2017-11-30T10:12:41.003Z,73.18
2017-11-30T10:15:07.800Z,72.94
2017-11-30T10:17:34.441Z,72.54
2017-11-30T10:20:00.854Z,72.44
2017-11-30T10:22:27.241Z,72.66
2017-11-30T10:24:53.422Z,72.23
2017-11-30T10:27:19.605Z,71.96
2017-11-30T10:29:45.827Z,70.93
2017-11-30T10:32:12.173Z,71.26
2017-11-30T10:34:38.305Z,71.86
2017-11-30T10:37:04.440Z,70.50
2017-11-30T10:39:31.013Z,71.69
2017-11-30T10:41:57.139Z,71.42
2017-11-30T10:44:23.189Z,72.59
2017-11-30T10:46:49.333Z,72.22
2017-11-30T10:49:15.388Z,72.60
2017-11-30T10:51:41.623Z,72.94
2017-11-30T10:54:07.687Z,72.87
2017-11-30T10:56:33.803Z,72.68
2017-11-30T10:59:00.390Z,73.09
2017-11-30T11:01:26.675Z,73.82
2017-11-30T11:03:52.665Z,73.46
2017-11-30T11:06:19.399Z,72.50
2017-11-30T11:08:45.865Z,72.46
2017-11-30T11:11:11.931Z,72.56
2017-11-30T11:13:38.039Z,73.03
2017-11-30T11:16:04.220Z,72.73
2017-11-30T11:18:30.620Z,72.93
2017-11-30T11:20:56.716Z,72.89
2017-11-30T11:23:22.866Z,73.29
2017-11-30T11:25:49.032Z,73.13
2017-11-30T11:28:15.237Z,74.14
2017-11-30T11:30:41.362Z,73.73
2017-11-30T11:33:07.541Z,74.36
2017-11-30T11:35:33.744Z,74.85
2017-11-30T11:38:00.060Z,75.59
2017-11-30T11:40:28.063Z,76.70
2017-11-30T11:42:54.328Z,78.06
2017-11-30T11:45:20.443Z,77.99
2017-11-30T11:47:46.629Z,78.12
2017-11-30T11:50:13.086Z,79.49
2017-11-30T11:52:39.221Z,80.16
2017-11-30T11:55:06.414Z,79.68
2017-11-30T11:57:32.658Z,80.30
2017-11-30T11:59:58.824Z,81.27
2017-11-30T12:02:24.976Z,80.88
2017-11-30T12:04:51.013Z,81.13
2017-11-30T12:07:17.142Z,82.66
2017-11-30T12:09:43.447Z,82.30
2017-11-30T12:12:09.534Z,82.67
2017-11-30T12:14:35.669Z,81.77
2017-11-30T12:17:02.045Z,82.32
2017-11-30T12:19:28.093Z,81.47
2017-11-30T12:21:54.298Z,80.17
2017-11-30T12:24:20.496Z,79.47
2017-11-30T12:26:47.065Z,78.58
2017-11-30T12:29:13.148Z,80.10
2017-11-30T12:31:39.217Z,78.40
2017-11-30T12:34:05.301Z,78.05
2017-11-30T12:36:31.635Z,77.65
2017-11-30T12:38:58.255Z,77.11
2017-11-30T12:41:24.637Z,77.82
2017-11-30T12:43:51.118Z,76.19
2017-11-30T12:46:17.596Z,76.81
2017-11-30T12:48:44.139Z,76.54
2017-11-30T12:51:10.589Z,75.99
2017-11-30T12:53:39.310Z,75.84
2017-11-30T12:56:05.802Z,76.66
2017-11-30T12:58:32.814Z,77.92
2017-11-30T13:00:59.545Z,79.07
2017-11-30T13:03:26.667Z,79.17
2017-11-30T13:05:53.210Z,79.56
2017-11-30T13:08:19.575Z,79.74
2017-11-30T13:10:46.090Z,82.15
2017-11-30T13:13:12.962Z,79.50
2017-11-30T13:15:39.406Z,79.88
2017-11-30T13:18:06.358Z,79.18
2017-11-30T13:20:32.738Z,78.98
2017-11-30T13:22:59.293Z,78.79
2017-11-30T13:25:25.839Z,78.08
2017-11-30T13:27:52.504Z,77.52
2017-11-30T13:30:18.978Z,77.16
2017-11-30T13:32:45.474Z,77.60
2017-11-30T13:35:12.214Z,77.16
2017-11-30T13:37:39.086Z,77.67
2017-11-30T13:40:05.600Z,77.79
2017-11-30T13:42:31.765Z,78.28
2017-11-30T13:44:58.132Z,77.73
2017-11-30T13:47:24.931Z,77.68
2017-11-30T13:49:51.595Z,77.58
2017-11-30T13:52:17.891Z,78.05
2017-11-30T13:54:44.387Z,78.28
2017-11-30T13:57:10.945Z,76.94
2017-11-30T13:59:37.205Z,77.83
2017-11-30T14:02:03.962Z,76.42
2017-11-30T14:04:30.457Z,76.66
2017-11-30T14:06:56.572Z,75.82
2017-11-30T14:09:22.735Z,75.94
2017-11-30T14:11:48.881Z,76.04
2017-11-30T14:14:14.987Z,76.16
2017-11-30T14:16:41.361Z,76.98
2017-11-30T14:19:07.905Z,78.39
2017-11-30T14:21:34.925Z,78.13
2017-11-30T14:24:01.353Z,79.70
2017-11-30T14:26:27.927Z,79.25
2017-11-30T14:28:54.232Z,79.70
2017-11-30T14:31:20.733Z,79.10
2017-11-30T14:33:47.501Z,79.32
2017-11-30T14:36:13.849Z,80.94
2017-11-30T14:38:40.160Z,81.57
2017-11-30T14:41:06.516Z,81.44
2017-11-30T14:43:32.621Z,81.32
2017-11-30T14:45:58.814Z,81.37
2017-11-30T14:48:25.090Z,82.81
2017-11-30T14:50:51.154Z,83.55
2017-11-30T14:53:17.196Z,83.34
2017-11-30T14:55:43.243Z,82.96
2017-11-30T14:58:09.406Z,83.19
2017-11-30T15:00:35.565Z,82.88
2017-11-30T15:03:01.858Z,83.05
2017-11-30T15:05:27.948Z,83.22
2017-11-30T15:07:54.000Z,83.28
2017-11-30T15:10:20.625Z,83.20
2017-11-30T15:12:47.303Z,83.89
2017-11-30T15:15:14.730Z,84.31
2017-11-30T15:17:41.439Z,83.16
2017-11-30T15:20:07.904Z,83.50
2017-11-30T15:22:35.629Z,84.41
2017-11-30T15:25:01.736Z,84.87
2017-11-30T15:27:27.889Z,84.60
2017-11-30T15:30:01.022Z,84.68
2017-11-30T15:32:27.172Z,84.99
2017-11-30T15:34:53.202Z,85.20
2017-11-30T15:37:20.011Z,85.00
2017-11-30T15:39:46.143Z,85.33
2017-11-30T15:42:12.320Z,85.98
2017-11-30T15:44:38.400Z,86.35
2017-11-30T15:47:04.779Z,86.80
2017-11-30T15:49:37.864Z,87.17
2017-11-30T15:52:04.075Z,86.92
2017-11-30T15:54:30.119Z,87.08
2017-11-30T15:56:56.175Z,87.09
2017-11-30T15:59:22.469Z,87.24
2017-11-30T16:01:48.830Z,86.94
2017-11-30T16:04:14.958Z,86.74
2017-11-30T16:06:41.073Z,86.90
2017-11-30T16:09:07.196Z,87.33
2017-11-30T16:11:33.554Z,86.88
2017-11-30T16:13:59.620Z,87.31
2017-11-30T16:16:26.254Z,87.84
2017-11-30T16:19:00.593Z,87.33
2017-11-30T16:21:26.809Z,87.26
2017-11-30T16:23:53.081Z,87.63
2017-11-30T16:26:19.760Z,87.69
2017-11-30T16:28:46.248Z,87.78
2017-11-30T16:31:13.706Z,88.05
2017-11-30T16:33:40.461Z,87.92
2017-11-30T16:36:06.645Z,87.84
2017-11-30T16:38:32.844Z,88.00
2017-11-30T16:40:59.783Z,88.19
2017-11-30T16:43:26.899Z,88.25
2017-11-30T16:45:53.548Z,88.33
2017-11-30T16:48:19.690Z,88.32
2017-11-30T16:50:45.923Z,88.60
2017-11-30T16:53:12.032Z,88.98
2017-11-30T16:55:39.112Z,89.48
2017-11-30T16:58:05.224Z,89.96
2017-11-30T17:00:31.345Z,90.44
2017-11-30T17:02:57.469Z,90.71
2017-11-30T17:05:23.843Z,91.48
2017-11-30T17:07:50.263Z,91.83
2017-11-30T17:10:17.430Z,92.59
2017-11-30T17:12:43.559Z,92.58
2017-11-30T17:15:10.629Z,92.67
2017-11-30T17:17:36.724Z,92.80
2017-11-30T17:20:03.949Z,93.04
2017-11-30T17:22:30.111Z,93.03
2017-11-30T17:24:56.371Z,93.05
2017-11-30T17:27:23.588Z,93.16
2017-11-30T17:29:49.871Z,93.33
2017-11-30T17:32:16.312Z,93.22
2017-11-30T17:34:42.548Z,93.31
2017-11-30T17:37:09.138Z,93.47
2017-11-30T17:39:35.469Z,93.31
2017-11-30T17:42:03.122Z,93.43
2017-11-30T17:44:29.702Z,93.50
2017-11-30T17:46:56.972Z,93.21
2017-11-30T17:49:23.581Z,93.51
2017-11-30T17:51:49.651Z,93.49
2017-11-30T17:54:15.886Z,93.11
2017-11-30T17:56:42.180Z,91.84
2017-11-30T17:59:08.332Z,91.20
2017-11-30T18:01:34.723Z,91.14
2017-11-30T18:04:00.856Z,91.32
2017-11-30T18:06:26.936Z,90.09
2017-11-30T18:08:53.023Z,89.33
2017-11-30T18:11:19.117Z,89.32
2017-11-30T18:13:45.172Z,89.32
2017-11-30T18:16:11.488Z,89.17
2017-11-30T18:18:37.827Z,89.37
2017-11-30T18:21:03.985Z,89.89
2017-11-30T18:23:30.310Z,90.24
2017-11-30T18:25:57.110Z,90.69
2017-11-30T18:28:23.339Z,91.47
2017-11-30T18:30:49.467Z,92.18
2017-11-30T18:33:15.862Z,92.54
2017-11-30T18:35:42.181Z,92.90
2017-11-30T18:38:08.349Z,93.18
2017-11-30T18:40:34.743Z,93.46
2017-11-30T18:43:00.785Z,93.62
2017-11-30T18:45:26.921Z,93.77
2017-11-30T18:47:53.041Z,93.78
2017-11-30T18:50:19.289Z,93.89
2017-11-30T18:52:45.266Z,94.11
2017-11-30T18:55:11.650Z,94.63
2017-11-30T18:57:37.998Z,95.18
2017-11-30T19:00:04.554Z,95.51
2017-11-30T19:02:30.834Z,95.96
2017-11-30T19:04:57.148Z,96.35
2017-11-30T19:07:23.481Z,96.51
2017-11-30T19:09:50.394Z,96.46
2017-11-30T19:12:16.638Z,96.60
2017-11-30T19:14:42.831Z,96.52
2017-11-30T19:17:09.041Z,96.36
2017-11-30T19:19:35.287Z,96.28
2017-11-30T19:22:01.658Z,96.25
2017-11-30T19:24:27.812Z,96.12
2017-11-30T19:26:54.120Z,96.03
2017-11-30T19:29:20.588Z,95.85
2017-11-30T19:31:46.736Z,95.82
2017-11-30T19:34:12.874Z,95.54
2017-11-30T19:36:38.897Z,95.59
2017-11-30T19:39:05.327Z,95.59
2017-11-30T19:41:31.476Z,95.72
2017-11-30T19:43:57.635Z,95.69
2017-11-30T19:46:23.738Z,95.87
2017-11-30T19:48:50.000Z,95.95
2017-11-30T19:51:16.339Z,95.99
2017-11-30T19:53:42.389Z,95.92
2017-11-30T19:56:08.489Z,95.98
2017-11-30T19:58:35.014Z,95.97
2017-11-30T20:01:01.031Z,95.98
2017-11-30T20:03:27.022Z,95.86
2017-11-30T20:05:53.300Z,95.76
2017-11-30T20:08:19.739Z,95.86
2017-11-30T20:10:45.911Z,96.04
2017-11-30T20:13:12.054Z,96.15
2017-11-30T20:15:39.374Z,96.26
2017-11-30T20:18:05.486Z,96.42
2017-11-30T20:20:31.643Z,96.39
2017-11-30T20:22:57.821Z,96.57
2017-11-30T20:25:23.922Z,96.51
2017-11-30T20:27:50.044Z,96.47
2017-11-30T20:30:16.137Z,96.48
2017-11-30T20:32:42.272Z,96.40
2017-11-30T20:35:08.589Z,96.28
2017-11-30T20:37:35.754Z,96.31
2017-11-30T20:40:02.370Z,96.43
2017-11-30T20:42:28.552Z,96.41
2017-11-30T20:44:55.102Z,96.33
2017-11-30T20:47:21.222Z,96.25
2017-11-30T20:49:47.338Z,96.00
2017-11-30T20:52:13.561Z,95.91
2017-11-30T20:54:39.828Z,95.84
2017-11-30T20:57:06.060Z,95.97
2017-11-30T20:59:32.322Z,95.99
2017-11-30T21:01:58.523Z,96.05
2017-11-30T21:04:24.566Z,96.13
2017-11-30T21:06:50.642Z,96.31
2017-11-30T21:09:16.853Z,96.21
2017-11-30T21:11:43.052Z,95.92
2017-11-30T21:14:09.219Z,96.10
2017-11-30T21:16:35.374Z,96.04
2017-11-30T21:19:01.489Z,95.80
2017-11-30T21:21:27.511Z,96.02
2017-11-30T21:23:53.647Z,96.15
2017-11-30T21:26:19.764Z,96.03
2017-11-30T21:28:45.993Z,96.04
2017-11-30T21:31:12.123Z,96.10
2017-11-30T21:33:38.361Z,96.06
2017-11-30T21:36:04.774Z,96.09
2017-11-30T21:38:30.939Z,96.00
2017-11-30T21:40:57.087Z,95.89
2017-11-30T21:43:23.152Z,95.89
2017-11-30T21:45:49.250Z,95.92
2017-11-30T21:48:15.539Z,96.03
2017-11-30T21:50:41.650Z,95.97
2017-11-30T21:53:07.729Z,96.21
2017-11-30T21:55:33.759Z,96.40
2017-11-30T21:57:59.773Z,96.54
2017-11-30T22:00:25.827Z,96.80
2017-11-30T22:02:51.975Z,96.87
2017-11-30T22:05:17.994Z,96.83
2017-11-30T22:07:51.348Z,96.79
2017-11-30T22:10:17.359Z,96.79
2017-11-30T22:12:43.695Z,96.84
2017-11-30T22:15:09.962Z,96.67
2017-11-30T22:17:36.608Z,96.65
2017-11-30T22:20:03.093Z,96.49
2017-11-30T22:22:29.152Z,96.64
2017-11-30T22:24:55.202Z,96.55
2017-11-30T22:27:21.392Z,96.66
2017-11-30T22:29:47.524Z,96.64
2017-11-30T22:32:13.624Z,96.60
2017-11-30T22:34:40.052Z,96.55
2017-11-30T22:37:06.223Z,96.55
2017-11-30T22:39:32.238Z,96.60
2017-11-30T22:41:58.522Z,96.63
2017-11-30T22:44:24.910Z,96.54
2017-11-30T22:46:51.146Z,96.56
2017-11-30T22:49:17.535Z,96.62
2017-11-30T22:51:44.051Z,96.52
2017-11-30T22:54:10.442Z,96.45
2017-11-30T22:56:37.163Z,96.33
2017-11-30T22:59:03.726Z,96.37
2017-11-30T23:01:30.205Z,96.43
2017-11-30T23:03:56.666Z,96.51
2017-11-30T23:06:23.105Z,96.59
2017-11-30T23:08:49.504Z,96.46
2017-11-30T23:11:15.848Z,96.41
2017-11-30T23:13:42.181Z,96.45
2017-11-30T23:16:08.579Z,96.45
2017-11-30T23:18:35.010Z,96.45
2017-11-30T23:21:01.400Z,96.62
2017-11-30T23:23:27.662Z,96.72
2017-11-30T23:25:54.387Z,96.68
2017-11-30T23:28:20.732Z,96.71
2017-11-30T23:30:47.331Z,96.69
2017-11-30T23:33:13.734Z,96.70
2017-11-30T23:35:40.388Z,96.68
2017-11-30T23:38:06.832Z,96.65
2017-11-30T23:40:33.233Z,96.58
2017-11-30T23:42:59.360Z,96.64
2017-11-30T23:45:26.300Z,96.71
2017-11-30T23:47:52.607Z,96.75
2017-11-30T23:50:18.918Z,96.89
2017-11-30T23:52:45.343Z,97.02
2017-11-30T23:55:11.691Z,97.08
2017-11-30T23:57:38.323Z,97.05
